Portada
METAR-TAF:

METAR-TAF

Aeroports :

Maurici, Maurici

latitud: 20-26S, longitud: 057-40E, altitud: 55 m

Observació

L'informe es va fer fa 34 minuts, a les 04:00 UTC
Vent 2 kt amb direcció variable
Temperatura 22°C
Humitat 100%
Pressió 1013 hPa
Visibilitat 10 km o més
Escasses núvols a una alçada de 1500 ft
Núvols disperses a una alçada de 5000 ft
xàfecs en les proximitats

METAR: FIMP 070400Z VRB02KT 9999 VCSH FEW015 SCT050 22/22 Q1013

Hora: 08:34 (04:34 UTC)

Pronòstic

L'informe es va fer fa 5 hores i 29 minuts, a les 23:05 UTC
Pronòstic vàlid del 07 a les 00 UTC al 08 a les 06 UTC
Vent 3 kt amb direcció variable
Visibilitat 10 km o més
Núvols disperses a una alçada de 1700 ft
Evolucionant progressivament
l' 07 a les 04 UTC al 07 a les 06 UTC
Vent 10 kt del Sud

TAF: FIMP 062305Z 0700/0806 VRB03KT 9999 SCT017 BECMG 0704/0706 18010KT

Observacions i pronòstics meteorològics de més de 4000 aeroports (METAR i TAF).

Les estacions disponibles són els punts grocs i vermells al mapa.

Posi el ratolí al punt desitjat per veure el nom de l'estació.

Feu clic per veure les observacions i els pronòstics meteorològics.

Per canviar el mapa: feu clic els botons verds amb una creu de color negre per apropar; al botó verd amb un guió per allunyar la imatge; o en les fletxes verdes per a mapes adjacents.


METAR-TAF: